createdAt,value
2022-08-06T00:00:02.345Z,1.40
2022-08-06T00:02:50.293Z,1.20
2022-08-06T00:05:52.152Z,1.73
2022-08-06T00:08:54.693Z,1.60
2022-08-06T00:12:00.818Z,1.52
2022-08-06T00:15:12.462Z,1.60
2022-08-06T00:18:15.144Z,1.63
2022-08-06T00:21:40.889Z,1.55
2022-08-06T00:24:37.913Z,1.33
2022-08-06T00:27:39.748Z,1.30
2022-08-06T00:30:44.509Z,1.52
2022-08-06T00:33:57.179Z,1.52
2022-08-06T00:36:58.927Z,1.30
2022-08-06T00:40:00.603Z,1.63
2022-08-06T00:43:08.955Z,1.33
2022-08-06T00:46:16.189Z,1.42
2022-08-06T00:49:22.582Z,1.60
2022-08-06T00:52:39.390Z,1.35
2022-08-06T00:55:59.176Z,1.55
2022-08-06T00:59:03.821Z,1.33
2022-08-06T01:02:09.621Z,1.35
2022-08-06T01:06:04.457Z,1.38
2022-08-06T01:08:32.914Z,1.65
2022-08-06T01:11:34.912Z,1.50
2022-08-06T01:14:38.924Z,1.45
2022-08-06T01:21:56.949Z,1.38
2022-08-06T01:24:41.234Z,1.70
2022-08-06T01:27:52.867Z,1.60
2022-08-06T01:30:58.406Z,1.25
2022-08-06T01:34:04.498Z,1.73
2022-08-06T01:37:17.522Z,1.30
2022-08-06T01:40:25.293Z,1.52
2022-08-06T01:44:05.538Z,1.50
2022-08-06T01:46:50.800Z,1.35
2022-08-06T01:50:00.802Z,1.58
2022-08-06T01:53:07.171Z,1.42
2022-08-06T01:56:23.099Z,1.20
2022-08-06T01:59:37.479Z,1.40
2022-08-06T02:02:42.092Z,1.42
2022-08-06T02:05:45.105Z,1.63
2022-08-06T02:08:55.943Z,1.63
2022-08-06T02:12:04.221Z,1.40
2022-08-06T02:15:12.978Z,1.35
2022-08-06T02:18:16.023Z,1.80
2022-08-06T02:21:35.342Z,1.13
2022-08-06T02:24:37.780Z,1.60
2022-08-06T02:27:43.884Z,1.60
2022-08-06T02:30:56.323Z,1.42
2022-08-06T02:34:03.460Z,1.45
2022-08-06T02:38:01.548Z,1.50
2022-08-06T02:40:46.059Z,1.30
2022-08-06T02:47:00.900Z,1.38
2022-08-06T02:50:06.171Z,1.40
2022-08-06T02:53:24.197Z,1.20
2022-08-06T02:56:28.119Z,1.10
2022-08-06T02:59:38.636Z,1.35
2022-08-06T03:02:44.616Z,1.40
2022-08-06T03:05:54.675Z,1.48
2022-08-06T03:08:58.844Z,1.30
2022-08-06T03:12:01.330Z,1.45
2022-08-06T03:15:09.930Z,1.30
2022-08-06T03:18:16.406Z,1.30
2022-08-06T03:21:25.523Z,1.52
2022-08-06T03:24:36.320Z,1.25
2022-08-06T03:27:43.361Z,1.20
2022-08-06T03:30:46.676Z,1.23
2022-08-06T03:33:54.466Z,1.17
2022-08-06T03:36:57.005Z,1.13
2022-08-06T03:40:00.148Z,1.20
2022-08-06T03:43:03.457Z,1.40
2022-08-06T03:46:09.738Z,1.40
2022-08-06T03:49:14.533Z,1.35
2022-08-06T03:52:22.773Z,1.10
2022-08-06T03:55:28.742Z,1.38
2022-08-06T03:58:32.131Z,1.33
2022-08-06T04:01:43.060Z,1.33
2022-08-06T04:04:51.581Z,1.30
2022-08-06T04:08:05.126Z,1.35
2022-08-06T04:11:07.703Z,1.48
2022-08-06T04:14:29.349Z,1.25
2022-08-06T04:17:32.936Z,1.25
2022-08-06T04:20:41.124Z,1.25
2022-08-06T04:23:44.381Z,1.48
2022-08-06T04:26:48.694Z,1.20
2022-08-06T04:29:59.027Z,1.20
2022-08-06T04:33:04.791Z,1.00
2022-08-06T04:36:17.314Z,1.38
2022-08-06T04:39:37.932Z,1.10
2022-08-06T04:42:47.299Z,1.33
2022-08-06T04:46:16.337Z,1.13
2022-08-06T04:49:14.298Z,1.10
2022-08-06T04:52:35.927Z,1.33
2022-08-06T04:56:03.063Z,1.30
2022-08-06T04:59:07.290Z,1.30
2022-08-06T05:02:09.073Z,1.35
2022-08-06T05:05:11.168Z,0.95
2022-08-06T05:08:13.765Z,1.15
2022-08-06T05:11:22.114Z,1.13
2022-08-06T05:14:30.025Z,1.73
2022-08-06T05:17:35.445Z,1.38
2022-08-06T05:20:40.553Z,1.23
2022-08-06T05:23:49.011Z,1.30
2022-08-06T05:26:54.939Z,1.13
2022-08-06T05:29:56.478Z,1.42
2022-08-06T05:32:59.185Z,1.48
2022-08-06T05:36:05.110Z,1.20
2022-08-06T05:39:08.452Z,1.38
2022-08-06T05:42:09.883Z,1.00
2022-08-06T05:45:13.578Z,1.10
2022-08-06T05:48:16.595Z,1.25
2022-08-06T05:51:42.964Z,1.38
2022-08-06T05:54:52.416Z,1.27
2022-08-06T05:58:00.094Z,1.35
2022-08-06T06:01:03.314Z,1.40
2022-08-06T06:04:14.198Z,1.23
2022-08-06T06:08:08.411Z,1.17
2022-08-06T06:10:38.968Z,1.27
2022-08-06T06:13:59.365Z,1.40
2022-08-06T06:17:05.784Z,1.00
2022-08-06T06:20:08.524Z,1.10
2022-08-06T06:23:15.051Z,1.20
2022-08-06T06:26:33.420Z,1.20
2022-08-06T06:30:06.273Z,1.10
2022-08-06T06:33:07.018Z,1.02
2022-08-06T06:36:17.704Z,1.30
2022-08-06T06:39:37.293Z,1.20
2022-08-06T06:42:43.040Z,1.27
2022-08-06T06:46:05.518Z,1.02
2022-08-06T06:50:00.420Z,1.30
2022-08-06T06:52:44.448Z,1.20
2022-08-06T06:55:55.573Z,1.00
2022-08-06T06:59:17.173Z,1.27
2022-08-06T07:02:22.069Z,1.02
2022-08-06T07:06:05.250Z,0.95
2022-08-06T07:08:50.804Z,1.00
2022-08-06T07:12:02.957Z,1.30
2022-08-06T07:15:12.643Z,1.00
2022-08-06T07:18:27.227Z,1.05
2022-08-06T07:21:32.712Z,1.10
2022-08-06T07:24:38.294Z,1.05
2022-08-06T07:27:53.043Z,1.42
2022-08-06T07:31:03.614Z,0.90
2022-08-06T07:34:09.521Z,0.80
2022-08-06T07:37:25.637Z,0.57
2022-08-06T07:40:38.525Z,0.82
2022-08-06T07:43:51.587Z,0.75
2022-08-06T07:46:55.622Z,1.13
2022-08-06T07:50:00.710Z,0.70
2022-08-06T07:53:03.599Z,0.90
2022-08-06T07:56:06.764Z,0.95
2022-08-06T07:59:11.959Z,0.70
2022-08-06T08:02:17.256Z,0.77
2022-08-06T08:06:00.670Z,0.70
2022-08-06T08:09:04.435Z,0.80
2022-08-06T08:12:26.414Z,0.80
2022-08-06T08:15:28.642Z,0.63
2022-08-06T08:18:31.623Z,0.63
2022-08-06T08:21:34.167Z,0.70
2022-08-06T08:24:37.957Z,0.80
2022-08-06T08:27:43.417Z,0.70
2022-08-06T08:30:49.681Z,0.70
2022-08-06T08:33:51.680Z,0.80
2022-08-06T08:36:52.962Z,0.80
2022-08-06T08:39:55.834Z,0.80
2022-08-06T08:42:59.580Z,0.70
2022-08-06T08:49:16.469Z,0.70
2022-08-06T08:52:21.212Z,0.70
2022-08-06T08:57:01.929Z,1.15
2022-08-06T08:59:02.787Z,0.90
2022-08-06T09:02:10.573Z,0.70
2022-08-06T09:05:12.190Z,0.70
2022-08-06T09:08:19.091Z,0.77
2022-08-06T09:12:04.867Z,0.88
2022-08-06T09:14:59.598Z,0.73
2022-08-06T09:18:25.055Z,0.80
2022-08-06T09:21:23.124Z,0.80
2022-08-06T09:24:33.483Z,0.75
2022-08-06T09:27:47.399Z,0.82
2022-08-06T09:30:57.880Z,0.80
2022-08-06T09:34:30.196Z,0.60
2022-08-06T09:37:54.151Z,0.60
2022-08-06T09:41:06.306Z,0.65
2022-08-06T09:44:37.381Z,0.70
2022-08-06T09:47:33.292Z,0.70
2022-08-06T09:50:52.939Z,0.80
2022-08-06T09:54:22.285Z,0.80
2022-08-06T09:57:15.525Z,0.68
2022-08-06T10:00:30.083Z,0.73
2022-08-06T10:04:05.619Z,0.68
2022-08-06T10:07:02.347Z,0.70
2022-08-06T10:10:09.747Z,0.70
2022-08-06T10:13:12.332Z,0.65
2022-08-06T10:16:18.365Z,0.70
2022-08-06T10:19:20.283Z,0.60
2022-08-06T10:22:26.960Z,1.10
2022-08-06T10:25:30.798Z,0.70
2022-08-06T10:28:33.976Z,0.80
2022-08-06T10:31:36.238Z,0.60
2022-08-06T10:34:38.487Z,0.75
2022-08-06T10:37:48.312Z,0.52
2022-08-06T10:40:57.317Z,0.68
2022-08-06T10:44:01.009Z,0.73
2022-08-06T10:47:08.478Z,0.60
2022-08-06T10:50:24.249Z,0.70
2022-08-06T10:54:01.174Z,0.80
2022-08-06T10:56:54.903Z,0.75
2022-08-06T10:59:56.592Z,0.68
2022-08-06T11:03:07.390Z,0.90
2022-08-06T11:06:15.135Z,0.70
2022-08-06T11:09:16.399Z,0.63
2022-08-06T11:12:20.514Z,0.73
2022-08-06T11:15:24.867Z,0.82
2022-08-06T11:18:30.706Z,0.60
2022-08-06T11:21:58.807Z,0.80
2022-08-06T11:25:25.419Z,0.73
2022-08-06T11:28:30.762Z,0.63
2022-08-06T11:31:32.076Z,0.63
2022-08-06T11:34:41.698Z,0.65
2022-08-06T11:38:00.729Z,0.80
2022-08-06T11:41:45.048Z,0.80
2022-08-06T11:44:35.718Z,0.80
2022-08-06T11:47:58.407Z,0.70
2022-08-06T11:51:23.347Z,0.90
2022-08-06T11:54:28.541Z,0.88
2022-08-06T11:57:41.147Z,0.75
2022-08-06T12:01:34.303Z,0.80
2022-08-06T12:04:39.820Z,0.80
2022-08-06T12:07:48.634Z,1.15
2022-08-06T12:11:11.917Z,1.00
2022-08-06T12:14:37.609Z,0.90
2022-08-06T12:18:20.401Z,0.65
2022-08-06T12:21:16.301Z,0.80
2022-08-06T12:24:23.434Z,0.70
2022-08-06T12:27:31.197Z,0.77
2022-08-06T12:30:53.487Z,0.82
2022-08-06T12:36:57.600Z,0.80
2022-08-06T12:40:19.431Z,0.70
2022-08-06T12:43:43.218Z,0.70
2022-08-06T12:46:44.637Z,0.70
2022-08-06T12:49:45.970Z,0.50
2022-08-06T12:53:02.113Z,0.63
2022-08-06T12:56:07.005Z,0.95
2022-08-06T12:59:12.809Z,0.73
2022-08-06T13:02:27.188Z,0.63
2022-08-06T13:05:31.486Z,0.77
2022-08-06T13:08:37.463Z,0.77
2022-08-06T13:11:50.887Z,0.82
2022-08-06T13:15:10.214Z,0.63
2022-08-06T13:18:40.932Z,0.65
2022-08-06T13:21:57.145Z,0.73
2022-08-06T13:25:30.919Z,0.65
2022-08-06T13:30:28.597Z,0.80
2022-08-06T13:32:27.303Z,1.10
2022-08-06T13:35:32.835Z,0.70
2022-08-06T13:38:36.897Z,0.75
2022-08-06T13:41:55.965Z,0.90
2022-08-06T13:44:58.758Z,0.65
2022-08-06T13:48:07.534Z,0.90
2022-08-06T13:51:27.224Z,0.82
2022-08-06T13:54:33.723Z,0.70
2022-08-06T14:00:48.708Z,0.85
2022-08-06T14:03:50.315Z,0.98
2022-08-06T14:06:52.786Z,1.10
2022-08-06T14:10:08.222Z,0.60
2022-08-06T14:13:17.461Z,0.63
2022-08-06T14:16:22.004Z,0.88
2022-08-06T14:20:17.519Z,0.80
2022-08-06T14:22:49.425Z,0.75
2022-08-06T14:25:59.606Z,0.77
2022-08-06T14:30:26.602Z,0.80
2022-08-06T14:32:26.721Z,0.88
2022-08-06T14:35:28.307Z,0.80
2022-08-06T14:38:42.670Z,0.63
2022-08-06T14:42:02.547Z,0.80
2022-08-06T14:45:07.118Z,0.70
2022-08-06T14:48:09.545Z,0.73
2022-08-06T14:51:12.974Z,0.80
2022-08-06T14:54:15.017Z,0.77
2022-08-06T14:57:16.682Z,0.70
2022-08-06T15:00:21.803Z,0.80
2022-08-06T15:03:32.913Z,0.80
2022-08-06T15:06:37.873Z,0.77
2022-08-06T15:10:04.459Z,0.70
2022-08-06T15:13:10.176Z,0.98
2022-08-06T15:16:47.862Z,0.70
2022-08-06T15:19:41.657Z,0.80
2022-08-06T15:22:47.296Z,0.80
2022-08-06T15:26:02.114Z,0.77
2022-08-06T15:29:15.693Z,0.70
2022-08-06T15:32:18.855Z,0.77
2022-08-06T15:35:20.376Z,0.80
2022-08-06T15:38:22.733Z,0.82
2022-08-06T15:41:24.403Z,0.80
2022-08-06T15:44:28.652Z,0.73
2022-08-06T15:47:45.607Z,0.80
2022-08-06T15:51:28.539Z,0.68
2022-08-06T15:54:11.213Z,0.82
2022-08-06T15:57:17.394Z,0.90
2022-08-06T16:00:19.724Z,0.80
2022-08-06T16:03:24.986Z,0.80
2022-08-06T16:06:29.144Z,0.82
2022-08-06T16:09:30.505Z,0.70
2022-08-06T16:12:52.415Z,0.82
2022-08-06T16:15:53.819Z,0.80
2022-08-06T16:18:56.712Z,0.70
2022-08-06T16:21:59.932Z,0.60
2022-08-06T16:25:03.540Z,0.70
2022-08-06T16:28:05.754Z,0.80
2022-08-06T16:31:10.543Z,0.90
2022-08-06T16:34:25.109Z,0.70
2022-08-06T16:37:33.005Z,0.80
2022-08-06T16:40:53.522Z,0.75
2022-08-06T16:43:56.162Z,0.70
2022-08-06T16:46:57.980Z,0.60
2022-08-06T16:50:24.875Z,0.73
2022-08-06T16:54:14.526Z,0.70
2022-08-06T16:56:43.220Z,0.70
2022-08-06T16:59:47.423Z,0.90
2022-08-06T17:02:49.904Z,0.80
2022-08-06T17:05:52.918Z,0.75
2022-08-06T17:08:54.896Z,0.68
2022-08-06T17:11:58.178Z,0.60
2022-08-06T17:15:15.017Z,0.70
2022-08-06T17:18:29.012Z,0.82
2022-08-06T17:21:57.937Z,0.93
2022-08-06T17:24:51.985Z,1.10
2022-08-06T17:27:58.349Z,1.00
2022-08-06T17:31:00.416Z,0.80
2022-08-06T17:34:01.796Z,0.82
2022-08-06T17:37:22.867Z,0.75
2022-08-06T17:40:30.577Z,0.82
2022-08-06T17:43:56.348Z,0.82
2022-08-06T17:46:55.601Z,0.82
2022-08-06T17:49:58.518Z,1.00
2022-08-06T17:52:59.953Z,0.90
2022-08-06T17:56:29.479Z,0.73
2022-08-06T17:59:32.360Z,0.82
2022-08-06T18:02:34.574Z,0.73
2022-08-06T18:05:40.030Z,0.82
2022-08-06T18:08:41.655Z,1.00
2022-08-06T18:11:52.425Z,0.80
2022-08-06T18:14:53.780Z,1.10
2022-08-06T18:18:03.791Z,0.85
2022-08-06T18:21:24.001Z,0.80
2022-08-06T18:24:26.814Z,0.90
2022-08-06T18:27:54.079Z,0.90
2022-08-06T18:30:50.304Z,0.70
2022-08-06T18:33:53.835Z,0.90
2022-08-06T18:36:55.527Z,0.82
2022-08-06T18:40:19.017Z,1.08
2022-08-06T18:43:18.183Z,0.90
2022-08-06T18:46:56.830Z,0.80
2022-08-06T18:49:51.143Z,0.90
2022-08-06T18:52:55.392Z,0.90
2022-08-06T18:56:04.499Z,0.90
2022-08-06T18:59:22.940Z,0.82
2022-08-06T19:02:27.045Z,0.80
2022-08-06T19:05:31.313Z,0.90
2022-08-06T19:08:41.992Z,0.73
2022-08-06T19:11:43.323Z,0.63
2022-08-06T19:14:48.809Z,0.80
2022-08-06T19:18:13.615Z,0.80
2022-08-06T19:21:16.495Z,0.73
2022-08-06T19:24:35.043Z,0.82
2022-08-06T19:28:30.827Z,0.73
2022-08-06T19:31:01.987Z,0.82
2022-08-06T19:34:08.676Z,1.10
2022-08-06T19:37:22.307Z,0.90
2022-08-06T19:40:47.188Z,1.10
2022-08-06T19:44:25.938Z,1.00
2022-08-06T19:47:21.523Z,0.80
2022-08-06T19:50:23.146Z,0.63
2022-08-06T19:53:31.285Z,0.70
2022-08-06T19:56:34.116Z,0.90
2022-08-06T20:00:55.815Z,0.93
2022-08-06T20:02:57.109Z,0.80
2022-08-06T20:06:19.900Z,0.80
2022-08-06T20:09:41.964Z,1.02
2022-08-06T20:12:51.012Z,0.80
2022-08-06T20:15:52.469Z,0.85
2022-08-06T20:18:53.781Z,0.75
2022-08-06T20:21:56.635Z,0.85
2022-08-06T20:24:58.137Z,0.63
2022-08-06T20:29:08.554Z,1.00
2022-08-06T20:31:21.312Z,0.73
2022-08-06T20:34:29.062Z,0.80
2022-08-06T20:37:36.852Z,0.70
2022-08-06T20:41:58.473Z,0.88
2022-08-06T20:44:08.454Z,0.75
2022-08-06T20:47:56.638Z,0.70
2022-08-06T20:50:32.519Z,0.80
2022-08-06T20:53:35.195Z,0.90
2022-08-06T20:56:38.682Z,0.90
2022-08-06T20:59:44.410Z,0.65
2022-08-06T21:03:02.873Z,0.80
2022-08-06T21:06:14.477Z,0.80
2022-08-06T21:09:24.333Z,0.65
2022-08-06T21:12:35.935Z,1.02
2022-08-06T21:16:09.917Z,0.73
2022-08-06T21:19:15.810Z,0.80
2022-08-06T21:22:19.930Z,0.88
2022-08-06T21:25:27.223Z,0.68
2022-08-06T21:28:40.954Z,0.73
2022-08-06T21:31:47.101Z,0.73
2022-08-06T21:34:48.760Z,0.73
2022-08-06T21:38:00.136Z,0.80
2022-08-06T21:41:29.572Z,0.75
2022-08-06T21:44:47.348Z,0.63
2022-08-06T21:47:52.541Z,1.83
2022-08-06T21:50:53.961Z,0.85
2022-08-06T21:54:01.979Z,0.68
2022-08-06T21:57:08.439Z,0.82
2022-08-06T22:00:36.088Z,1.25
2022-08-06T22:04:37.073Z,0.73
2022-08-06T22:06:59.747Z,0.77
2022-08-06T22:10:01.385Z,0.70
2022-08-06T22:13:15.980Z,0.77
2022-08-06T22:16:23.785Z,0.85
2022-08-06T22:19:39.314Z,0.70
2022-08-06T22:22:41.008Z,0.93
2022-08-06T22:25:42.859Z,0.70
2022-08-06T22:28:46.221Z,0.63
2022-08-06T22:31:56.107Z,1.00
2022-08-06T22:34:59.247Z,0.65
2022-08-06T22:38:19.208Z,0.63
2022-08-06T22:41:42.499Z,0.85
2022-08-06T22:45:21.310Z,0.63
2022-08-06T22:48:07.725Z,0.80
2022-08-06T22:51:11.964Z,0.77
2022-08-06T22:54:28.136Z,0.70
2022-08-06T22:58:55.262Z,0.70
2022-08-06T23:01:08.786Z,0.77
2022-08-06T23:04:26.727Z,0.85
2022-08-06T23:07:43.330Z,0.70
2022-08-06T23:10:49.708Z,0.65
2022-08-06T23:13:51.130Z,0.88
2022-08-06T23:16:52.418Z,0.68
2022-08-06T23:19:57.803Z,0.85
2022-08-06T23:22:59.550Z,0.90
2022-08-06T23:26:03.332Z,0.60
2022-08-06T23:29:08.640Z,0.70
2022-08-06T23:32:10.376Z,0.77
2022-08-06T23:35:36.137Z,0.65
2022-08-06T23:38:38.715Z,0.80
2022-08-06T23:42:01.185Z,0.80
2022-08-06T23:45:03.540Z,0.65
2022-08-06T23:48:05.137Z,0.82
2022-08-06T23:51:07.935Z,0.93
2022-08-06T23:54:23.395Z,0.73
2022-08-06T23:57:47.738Z,0.73
